»·PEaware :: N181DJ KLAX-KSNA

N181DJ :: KLAX-KSNA

FLIGHT INFORMATION

Flight Status: Arrived
Operator: Privately registered:
United States
More flights under this callsign
Pilot: Brian H. (29287)
Aircraft: PIPER PA-28 CHEROKEE ARCHER
(PA28)
More flights by this aircraft type
Origin: KLAX Los Angeles Intl
United States
Destination: KSNA John Wayne-Orange Co
United States
More flights between these airports :: More routes between these airports
Route: +SLI8 SLI
File this flight plan on PilotEdge
Remarks: LAXP55
Altitude:
(Current/Filed)
4,000ft
Speed:
(Current/Filed)
110kts
Departed: 21-Oct-20 03:30 PM
Arrived: 21-Oct-20 04:10 PM
Distance/Time
Traveled:
31nm/0:40
Distance/Time
To Go:
Arrived

Flight Plot

Page will automatically refresh every two minutes.

Flight plan parsing failed; only flown route is shown


Map Options




Map Legend


Flown Route
Filed Route
Departure Airport
Arrival Airport
Navaid (VOR, NDB)
Fix

Horizontal Profiles

Position Reports

Time Latitude Longitude Heading Altitude Ground
Speed
21-Oct-20 14:53 33.933636 -118.399303 174 112ft 0kts
21-Oct-20 14:54 33.933636 -118.399303 174 112ft 0kts
21-Oct-20 14:55 33.933636 -118.399303 174 112ft 0kts
21-Oct-20 14:56 33.933636 -118.399303 174 112ft 0kts
21-Oct-20 14:57 33.933636 -118.399303 174 112ft 0kts
21-Oct-20 14:58 33.933636 -118.399303 174 112ft 0kts
21-Oct-20 14:59 33.933636 -118.399303 174 112ft 0kts
21-Oct-20 15:00 33.933636 -118.399303 174 112ft 0kts
21-Oct-20 15:01 33.933636 -118.399303 174 112ft 0kts
21-Oct-20 15:02 33.933636 -118.399303 174 112ft 0kts
21-Oct-20 15:03 33.933636 -118.399303 174 112ft 0kts
21-Oct-20 15:04 33.933636 -118.399303 174 112ft 0kts
21-Oct-20 15:05 33.933636 -118.399303 174 112ft 0kts
21-Oct-20 15:06 33.933636 -118.399303 174 112ft 0kts
21-Oct-20 15:07 33.933636 -118.399303 174 112ft 0kts
21-Oct-20 15:08 33.933636 -118.399303 174 112ft 0kts
21-Oct-20 15:09 33.933636 -118.399303 174 112ft 0kts
21-Oct-20 15:10 33.933636 -118.399303 174 112ft 0kts
21-Oct-20 15:11 33.933636 -118.399303 174 112ft 0kts
21-Oct-20 15:12 33.933636 -118.399303 174 112ft 0kts
21-Oct-20 15:13 33.933636 -118.399303 174 112ft 0kts
21-Oct-20 15:14 33.933636 -118.399303 174 112ft 0kts
21-Oct-20 15:15 33.933636 -118.399303 174 112ft 0kts
21-Oct-20 15:16 33.933636 -118.399303 174 112ft 0kts
21-Oct-20 15:17 33.933636 -118.399303 174 112ft 0kts
21-Oct-20 15:18 33.933636 -118.399303 174 112ft 0kts
21-Oct-20 15:19 33.933636 -118.399303 174 112ft 0kts
21-Oct-20 15:20 33.933636 -118.399303 174 112ft 0kts
21-Oct-20 15:21 33.933636 -118.399303 174 112ft 0kts
21-Oct-20 15:22 33.933636 -118.399303 174 112ft 0kts
21-Oct-20 15:23 33.933636 -118.399303 174 112ft 0kts
21-Oct-20 15:24 33.933602 -118.399300 176 112ft 4kts
21-Oct-20 15:25 33.934260 -118.398181 356 110ft 11kts
21-Oct-20 15:26 33.935223 -118.391289 83 103ft 29kts
21-Oct-20 15:27 33.936395 -118.382905 9 97ft 0kts
21-Oct-20 15:28 33.936396 -118.382905 9 97ft 0kts
21-Oct-20 15:29 33.936542 -118.391116 262 118ft 83kts
21-Oct-20 15:30 33.933854 -118.419468 260 813ft 87kts
21-Oct-20 15:31 33.929326 -118.447976 248 1463ft 91kts
21-Oct-20 15:32 33.907065 -118.460210 214 2115ft 86kts
21-Oct-20 15:33 33.884961 -118.477301 216 2618ft 99kts
21-Oct-20 15:34 33.861908 -118.495971 216 3169ft 100kts
21-Oct-20 15:35 33.837149 -118.509401 175 3709ft 104kts
21-Oct-20 15:36 33.807344 -118.504075 176 4002ft 121kts
21-Oct-20 15:37 33.772003 -118.498501 176 3997ft 131kts
21-Oct-20 15:38 33.743289 -118.479025 89 4000ft 141kts
21-Oct-20 15:39 33.748468 -118.431647 84 4002ft 142kts
21-Oct-20 15:40 33.753160 -118.384199 85 4006ft 143kts
21-Oct-20 15:41 33.757658 -118.336528 85 4006ft 143kts
21-Oct-20 15:42 33.762202 -118.288856 85 4005ft 143kts
21-Oct-20 15:43 33.766940 -118.241409 85 4003ft 143kts
21-Oct-20 15:44 33.771847 -118.194513 85 4001ft 143kts
21-Oct-20 15:45 33.776932 -118.147064 85 3999ft 143kts
21-Oct-20 15:46 33.781663 -118.099489 86 3999ft 142kts
21-Oct-20 15:47 33.788622 -118.052591 65 3996ft 144kts
21-Oct-20 15:48 33.805402 -118.008689 67 3994ft 144kts
21-Oct-20 15:49 33.821294 -117.964668 66 3993ft 143kts
21-Oct-20 15:51 33.837705 -117.921182 63 3992ft 142kts
21-Oct-20 15:52 33.855183 -117.878428 62 3991ft 141kts
21-Oct-20 15:53 33.872315 -117.835998 63 3990ft 140kts
21-Oct-20 15:54 33.888771 -117.793500 63 3991ft 139kts
21-Oct-20 15:55 33.904922 -117.751470 63 3986ft 128kts
21-Oct-20 15:56 33.920485 -117.717320 31 3924ft 115kts
21-Oct-20 15:57 33.947870 -117.698065 27 3513ft 105kts
21-Oct-20 15:58 33.970359 -117.694689 290 3523ft 85kts
21-Oct-20 15:59 33.950391 -117.704065 168 3527ft 117kts
21-Oct-20 16:00 33.918501 -117.714169 207 3521ft 121kts
21-Oct-20 16:01 33.888177 -117.732999 209 3521ft 122kts
21-Oct-20 16:02 33.857434 -117.752116 209 3473ft 123kts
21-Oct-20 16:03 33.826946 -117.771186 210 3294ft 118kts
21-Oct-20 16:04 33.799650 -117.789007 210 2868ft 106kts
21-Oct-20 16:05 33.774299 -117.806214 211 2219ft 104kts
21-Oct-20 16:06 33.748818 -117.823817 205 1484ft 105kts
21-Oct-20 16:07 33.723327 -117.838763 207 884ft 100kts
21-Oct-20 16:08 33.701353 -117.852163 205 525ft 92kts
21-Oct-20 16:09 33.681492 -117.865148 207 90ft 62kts
21-Oct-20 16:09 33.675926 -117.869715 295 61ft 0kts
21-Oct-20 16:11 33.676663 -117.870486 23 61ft 12kts
21-Oct-20 16:11 33.676683 -117.870716 204 61ft 0kts

Navigation Log

Ident Type
Flight plan parsing failed, navigation log unavailable